sensor_id;sensor_type;location;lat;lon;timestamp;temperature;humidity
12123;DHT22;6125;59.628;17.852;2023-05-29T00:00:11;11.00;99.90
12123;DHT22;6125;59.628;17.852;2023-05-29T00:02:40;11.00;99.90
12123;DHT22;6125;59.628;17.852;2023-05-29T00:05:10;10.90;99.90
12123;DHT22;6125;59.628;17.852;2023-05-29T00:07:37;10.90;99.90
12123;DHT22;6125;59.628;17.852;2023-05-29T00:10:05;10.90;99.90
12123;DHT22;6125;59.628;17.852;2023-05-29T00:12:33;10.80;99.90
12123;DHT22;6125;59.628;17.852;2023-05-29T00:15:01;10.80;99.90
12123;DHT22;6125;59.628;17.852;2023-05-29T00:17:29;10.80;99.90
12123;DHT22;6125;59.628;17.852;2023-05-29T00:19:59;10.80;99.90
12123;DHT22;6125;59.628;17.852;2023-05-29T00:22:27;10.90;99.90
12123;DHT22;6125;59.628;17.852;2023-05-29T00:24:54;10.80;99.90
12123;DHT22;6125;59.628;17.852;2023-05-29T00:27:21;10.70;99.90
12123;DHT22;6125;59.628;17.852;2023-05-29T00:29:48;10.50;99.90
12123;DHT22;6125;59.628;17.852;2023-05-29T00:32:15;10.30;99.90
12123;DHT22;6125;59.628;17.852;2023-05-29T00:34:42;10.10;99.90
12123;DHT22;6125;59.628;17.852;2023-05-29T00:37:11;9.90;99.90
12123;DHT22;6125;59.628;17.852;2023-05-29T00:39:38;9.80;99.90
12123;DHT22;6125;59.628;17.852;2023-05-29T00:42:06;9.80;99.90
12123;DHT22;6125;59.628;17.852;2023-05-29T00:44:33;9.80;99.90
12123;DHT22;6125;59.628;17.852;2023-05-29T00:47:01;9.80;99.90
12123;DHT22;6125;59.628;17.852;2023-05-29T00:49:28;9.80;99.90
12123;DHT22;6125;59.628;17.852;2023-05-29T00:51:56;9.80;99.90
12123;DHT22;6125;59.628;17.852;2023-05-29T00:54:27;9.80;99.90
12123;DHT22;6125;59.628;17.852;2023-05-29T00:56:57;9.80;99.90
12123;DHT22;6125;59.628;17.852;2023-05-29T00:59:26;9.80;99.90
12123;DHT22;6125;59.628;17.852;2023-05-29T01:01:54;9.80;99.90
12123;DHT22;6125;59.628;17.852;2023-05-29T01:04:23;9.80;99.90
12123;DHT22;6125;59.628;17.852;2023-05-29T01:06:52;9.80;99.90
12123;DHT22;6125;59.628;17.852;2023-05-29T01:09:19;9.80;99.90
12123;DHT22;6125;59.628;17.852;2023-05-29T01:11:54;9.90;99.90
12123;DHT22;6125;59.628;17.852;2023-05-29T01:14:31;9.90;99.90
12123;DHT22;6125;59.628;17.852;2023-05-29T01:17:07;9.80;99.90
12123;DHT22;6125;59.628;17.852;2023-05-29T01:20:02;9.90;99.90
12123;DHT22;6125;59.628;17.852;2023-05-29T01:22:40;9.90;99.90
12123;DHT22;6125;59.628;17.852;2023-05-29T01:25:15;9.80;99.90
12123;DHT22;6125;59.628;17.852;2023-05-29T01:27:48;9.90;99.90
12123;DHT22;6125;59.628;17.852;2023-05-29T01:30:16;9.80;99.90
12123;DHT22;6125;59.628;17.852;2023-05-29T01:32:43;9.80;99.90
12123;DHT22;6125;59.628;17.852;2023-05-29T01:35:11;9.70;99.90
12123;DHT22;6125;59.628;17.852;2023-05-29T01:37:39;9.60;99.90
12123;DHT22;6125;59.628;17.852;2023-05-29T01:40:07;9.50;99.90
12123;DHT22;6125;59.628;17.852;2023-05-29T01:42:35;9.40;99.90
12123;DHT22;6125;59.628;17.852;2023-05-29T01:45:05;9.30;99.90
12123;DHT22;6125;59.628;17.852;2023-05-29T01:47:32;9.30;99.90
12123;DHT22;6125;59.628;17.852;2023-05-29T01:50:00;9.20;99.90
12123;DHT22;6125;59.628;17.852;2023-05-29T01:52:29;9.20;99.90
12123;DHT22;6125;59.628;17.852;2023-05-29T01:54:56;9.10;99.90
12123;DHT22;6125;59.628;17.852;2023-05-29T01:57:23;9.10;99.90
12123;DHT22;6125;59.628;17.852;2023-05-29T01:59:52;9.10;99.90
12123;DHT22;6125;59.628;17.852;2023-05-29T02:02:21;9.10;99.90
12123;DHT22;6125;59.628;17.852;2023-05-29T02:04:48;9.00;99.90
12123;DHT22;6125;59.628;17.852;2023-05-29T02:07:17;9.00;99.90
12123;DHT22;6125;59.628;17.852;2023-05-29T02:09:45;9.00;99.90
12123;DHT22;6125;59.628;17.852;2023-05-29T02:12:12;8.90;99.90
12123;DHT22;6125;59.628;17.852;2023-05-29T02:14:39;8.80;99.90
12123;DHT22;6125;59.628;17.852;2023-05-29T02:17:07;8.70;99.90
12123;DHT22;6125;59.628;17.852;2023-05-29T02:19:36;8.70;99.90
12123;DHT22;6125;59.628;17.852;2023-05-29T02:22:03;8.70;99.90
12123;DHT22;6125;59.628;17.852;2023-05-29T02:24:31;8.60;99.90
12123;DHT22;6125;59.628;17.852;2023-05-29T02:26:58;8.60;99.90
12123;DHT22;6125;59.628;17.852;2023-05-29T02:29:25;8.50;99.90
12123;DHT22;6125;59.628;17.852;2023-05-29T02:31:52;8.50;99.90
12123;DHT22;6125;59.628;17.852;2023-05-29T02:34:19;8.50;99.90
12123;DHT22;6125;59.628;17.852;2023-05-29T02:36:49;8.40;99.90
12123;DHT22;6125;59.628;17.852;2023-05-29T02:39:17;8.40;99.90
12123;DHT22;6125;59.628;17.852;2023-05-29T02:41:44;8.30;99.90
12123;DHT22;6125;59.628;17.852;2023-05-29T02:44:11;8.30;99.90
12123;DHT22;6125;59.628;17.852;2023-05-29T02:46:39;8.30;99.90
12123;DHT22;6125;59.628;17.852;2023-05-29T02:49:06;8.20;99.90
12123;DHT22;6125;59.628;17.852;2023-05-29T02:51:33;8.20;99.90
12123;DHT22;6125;59.628;17.852;2023-05-29T02:54:08;8.20;99.90
12123;DHT22;6125;59.628;17.852;2023-05-29T02:56:37;8.20;99.90
12123;DHT22;6125;59.628;17.852;2023-05-29T02:59:05;8.20;99.90
12123;DHT22;6125;59.628;17.852;2023-05-29T03:01:32;8.30;99.90
12123;DHT22;6125;59.628;17.852;2023-05-29T03:03:59;8.30;99.90
12123;DHT22;6125;59.628;17.852;2023-05-29T03:06:26;8.30;99.90
12123;DHT22;6125;59.628;17.852;2023-05-29T03:08:54;8.30;99.90
12123;DHT22;6125;59.628;17.852;2023-05-29T03:11:22;8.30;99.90
12123;DHT22;6125;59.628;17.852;2023-05-29T03:13:50;8.30;99.90
12123;DHT22;6125;59.628;17.852;2023-05-29T03:16:17;8.40;99.90
12123;DHT22;6125;59.628;17.852;2023-05-29T03:18:44;8.40;99.90
12123;DHT22;6125;59.628;17.852;2023-05-29T03:21:12;8.50;99.90
12123;DHT22;6125;59.628;17.852;2023-05-29T03:23:39;8.50;99.90
12123;DHT22;6125;59.628;17.852;2023-05-29T03:26:06;8.40;99.90
12123;DHT22;6125;59.628;17.852;2023-05-29T03:28:34;8.40;99.90
12123;DHT22;6125;59.628;17.852;2023-05-29T03:31:01;8.30;99.90
12123;DHT22;6125;59.628;17.852;2023-05-29T03:33:28;8.30;99.90
12123;DHT22;6125;59.628;17.852;2023-05-29T03:35:55;8.30;99.90
12123;DHT22;6125;59.628;17.852;2023-05-29T03:38:23;8.30;99.90
12123;DHT22;6125;59.628;17.852;2023-05-29T03:40:50;8.20;99.90
12123;DHT22;6125;59.628;17.852;2023-05-29T03:43:17;8.20;99.90
12123;DHT22;6125;59.628;17.852;2023-05-29T03:45:46;8.20;99.90
12123;DHT22;6125;59.628;17.852;2023-05-29T03:48:13;8.20;99.90
12123;DHT22;6125;59.628;17.852;2023-05-29T03:50:40;8.30;99.90
12123;DHT22;6125;59.628;17.852;2023-05-29T03:53:07;8.30;99.90
12123;DHT22;6125;59.628;17.852;2023-05-29T03:55:35;8.30;99.90
12123;DHT22;6125;59.628;17.852;2023-05-29T03:58:02;8.30;99.90
12123;DHT22;6125;59.628;17.852;2023-05-29T04:00:29;8.30;99.90
12123;DHT22;6125;59.628;17.852;2023-05-29T04:02:58;8.30;99.90
12123;DHT22;6125;59.628;17.852;2023-05-29T04:05:25;8.30;99.90
12123;DHT22;6125;59.628;17.852;2023-05-29T04:07:52;8.30;99.90
12123;DHT22;6125;59.628;17.852;2023-05-29T04:10:19;8.30;99.90
12123;DHT22;6125;59.628;17.852;2023-05-29T04:12:46;8.20;99.90
12123;DHT22;6125;59.628;17.852;2023-05-29T04:15:14;8.20;99.90
12123;DHT22;6125;59.628;17.852;2023-05-29T04:17:41;8.20;99.90
12123;DHT22;6125;59.628;17.852;2023-05-29T04:20:10;8.10;99.90
12123;DHT22;6125;59.628;17.852;2023-05-29T04:22:38;8.10;99.90
12123;DHT22;6125;59.628;17.852;2023-05-29T04:25:05;8.10;99.90
12123;DHT22;6125;59.628;17.852;2023-05-29T04:27:33;8.20;99.90
12123;DHT22;6125;59.628;17.852;2023-05-29T04:30:03;8.20;99.90
12123;DHT22;6125;59.628;17.852;2023-05-29T04:32:30;8.30;99.90
12123;DHT22;6125;59.628;17.852;2023-05-29T04:34:58;8.30;99.90
12123;DHT22;6125;59.628;17.852;2023-05-29T04:37:29;8.40;99.90
12123;DHT22;6125;59.628;17.852;2023-05-29T04:39:57;8.40;99.90
12123;DHT22;6125;59.628;17.852;2023-05-29T04:42:24;8.40;99.90
12123;DHT22;6125;59.628;17.852;2023-05-29T04:44:52;8.50;99.90
12123;DHT22;6125;59.628;17.852;2023-05-29T04:47:19;8.60;99.90
12123;DHT22;6125;59.628;17.852;2023-05-29T04:49:48;8.70;99.90
12123;DHT22;6125;59.628;17.852;2023-05-29T04:52:16;8.80;99.90
12123;DHT22;6125;59.628;17.852;2023-05-29T04:54:44;8.90;99.90
12123;DHT22;6125;59.628;17.852;2023-05-29T04:57:11;9.00;99.90
12123;DHT22;6125;59.628;17.852;2023-05-29T04:59:38;9.10;99.90
12123;DHT22;6125;59.628;17.852;2023-05-29T05:02:05;9.10;99.90
12123;DHT22;6125;59.628;17.852;2023-05-29T05:04:32;9.10;99.90
12123;DHT22;6125;59.628;17.852;2023-05-29T05:07:00;9.10;99.90
12123;DHT22;6125;59.628;17.852;2023-05-29T05:09:29;9.20;99.90
12123;DHT22;6125;59.628;17.852;2023-05-29T05:11:57;9.30;99.90
12123;DHT22;6125;59.628;17.852;2023-05-29T05:14:24;9.40;99.90
12123;DHT22;6125;59.628;17.852;2023-05-29T05:16:51;9.40;99.90
12123;DHT22;6125;59.628;17.852;2023-05-29T05:19:19;9.40;99.90
12123;DHT22;6125;59.628;17.852;2023-05-29T05:21:46;9.40;99.90
12123;DHT22;6125;59.628;17.852;2023-05-29T05:24:13;9.40;99.90
12123;DHT22;6125;59.628;17.852;2023-05-29T05:26:40;9.40;99.90
12123;DHT22;6125;59.628;17.852;2023-05-29T05:29:09;9.50;99.90
12123;DHT22;6125;59.628;17.852;2023-05-29T05:31:36;9.60;99.90
12123;DHT22;6125;59.628;17.852;2023-05-29T05:34:03;9.70;99.90
12123;DHT22;6125;59.628;17.852;2023-05-29T05:36:30;9.80;99.90
12123;DHT22;6125;59.628;17.852;2023-05-29T05:38:58;9.80;99.90
12123;DHT22;6125;59.628;17.852;2023-05-29T05:41:25;9.80;99.90
12123;DHT22;6125;59.628;17.852;2023-05-29T05:43:52;9.80;99.90
12123;DHT22;6125;59.628;17.852;2023-05-29T05:46:21;9.70;99.90
12123;DHT22;6125;59.628;17.852;2023-05-29T05:48:48;9.80;99.90
12123;DHT22;6125;59.628;17.852;2023-05-29T05:51:15;9.90;99.90
12123;DHT22;6125;59.628;17.852;2023-05-29T05:53:43;10.00;99.90
12123;DHT22;6125;59.628;17.852;2023-05-29T05:56:10;9.90;99.90
12123;DHT22;6125;59.628;17.852;2023-05-29T05:58:37;9.90;99.90
12123;DHT22;6125;59.628;17.852;2023-05-29T06:01:05;10.00;99.90
12123;DHT22;6125;59.628;17.852;2023-05-29T06:03:34;10.00;99.90
12123;DHT22;6125;59.628;17.852;2023-05-29T06:06:03;10.10;99.90
12123;DHT22;6125;59.628;17.852;2023-05-29T06:08:30;10.20;99.90
12123;DHT22;6125;59.628;17.852;2023-05-29T06:10:57;10.20;99.90
12123;DHT22;6125;59.628;17.852;2023-05-29T06:13:25;10.10;99.90
12123;DHT22;6125;59.628;17.852;2023-05-29T06:15:52;10.10;99.90
12123;DHT22;6125;59.628;17.852;2023-05-29T06:18:19;10.20;99.90
12123;DHT22;6125;59.628;17.852;2023-05-29T06:20:47;10.20;99.90
12123;DHT22;6125;59.628;17.852;2023-05-29T06:23:15;10.20;99.90
12123;DHT22;6125;59.628;17.852;2023-05-29T06:25:43;10.30;99.90
12123;DHT22;6125;59.628;17.852;2023-05-29T06:28:10;10.40;99.90
12123;DHT22;6125;59.628;17.852;2023-05-29T06:30:38;10.40;99.90
12123;DHT22;6125;59.628;17.852;2023-05-29T06:33:05;10.50;99.90
12123;DHT22;6125;59.628;17.852;2023-05-29T06:35:33;10.50;99.90
12123;DHT22;6125;59.628;17.852;2023-05-29T06:38:01;10.40;99.90
12123;DHT22;6125;59.628;17.852;2023-05-29T06:40:28;10.40;99.90
12123;DHT22;6125;59.628;17.852;2023-05-29T06:42:55;10.40;99.90
12123;DHT22;6125;59.628;17.852;2023-05-29T06:45:22;10.50;99.90
12123;DHT22;6125;59.628;17.852;2023-05-29T06:47:49;10.60;99.90
12123;DHT22;6125;59.628;17.852;2023-05-29T06:50:16;10.70;99.90
12123;DHT22;6125;59.628;17.852;2023-05-29T06:52:43;10.70;99.90
12123;DHT22;6125;59.628;17.852;2023-05-29T06:55:12;10.80;99.90
12123;DHT22;6125;59.628;17.852;2023-05-29T06:57:39;10.90;99.90
12123;DHT22;6125;59.628;17.852;2023-05-29T07:00:07;10.90;99.90
12123;DHT22;6125;59.628;17.852;2023-05-29T07:02:36;11.00;99.90
12123;DHT22;6125;59.628;17.852;2023-05-29T07:05:04;11.00;99.90
12123;DHT22;6125;59.628;17.852;2023-05-29T07:07:31;11.00;99.90
12123;DHT22;6125;59.628;17.852;2023-05-29T07:09:58;11.00;99.90
12123;DHT22;6125;59.628;17.852;2023-05-29T07:12:27;11.10;99.90
12123;DHT22;6125;59.628;17.852;2023-05-29T07:14:54;11.10;99.90
12123;DHT22;6125;59.628;17.852;2023-05-29T07:17:21;11.10;99.90
12123;DHT22;6125;59.628;17.852;2023-05-29T07:19:49;11.10;99.90
12123;DHT22;6125;59.628;17.852;2023-05-29T07:22:16;11.20;99.90
12123;DHT22;6125;59.628;17.852;2023-05-29T07:24:43;11.30;99.90
12123;DHT22;6125;59.628;17.852;2023-05-29T07:27:10;11.40;99.90
12123;DHT22;6125;59.628;17.852;2023-05-29T07:29:38;11.50;99.90
12123;DHT22;6125;59.628;17.852;2023-05-29T07:32:05;11.60;99.90
12123;DHT22;6125;59.628;17.852;2023-05-29T07:34:32;11.60;99.90
12123;DHT22;6125;59.628;17.852;2023-05-29T07:37:01;11.70;99.90
12123;DHT22;6125;59.628;17.852;2023-05-29T07:39:28;11.70;99.90
12123;DHT22;6125;59.628;17.852;2023-05-29T07:41:55;11.80;99.90
12123;DHT22;6125;59.628;17.852;2023-05-29T07:44:22;11.80;99.90
12123;DHT22;6125;59.628;17.852;2023-05-29T07:46:51;11.80;99.90
12123;DHT22;6125;59.628;17.852;2023-05-29T07:49:19;11.80;99.90
12123;DHT22;6125;59.628;17.852;2023-05-29T07:51:46;11.90;99.90
12123;DHT22;6125;59.628;17.852;2023-05-29T07:54:13;11.90;99.90
12123;DHT22;6125;59.628;17.852;2023-05-29T07:56:43;11.90;99.90
12123;DHT22;6125;59.628;17.852;2023-05-29T07:59:11;12.00;99.90
12123;DHT22;6125;59.628;17.852;2023-05-29T08:01:38;12.00;99.90
12123;DHT22;6125;59.628;17.852;2023-05-29T08:04:14;12.10;99.90
12123;DHT22;6125;59.628;17.852;2023-05-29T08:06:41;12.20;99.90
12123;DHT22;6125;59.628;17.852;2023-05-29T08:09:09;12.40;99.90
12123;DHT22;6125;59.628;17.852;2023-05-29T08:11:37;12.50;99.90
12123;DHT22;6125;59.628;17.852;2023-05-29T08:14:04;12.40;99.90
12123;DHT22;6125;59.628;17.852;2023-05-29T08:16:31;12.40;99.90
12123;DHT22;6125;59.628;17.852;2023-05-29T08:18:58;12.40;99.90
12123;DHT22;6125;59.628;17.852;2023-05-29T08:21:27;12.40;99.90
12123;DHT22;6125;59.628;17.852;2023-05-29T08:23:54;12.40;99.90
12123;DHT22;6125;59.628;17.852;2023-05-29T08:26:21;12.40;99.90
12123;DHT22;6125;59.628;17.852;2023-05-29T08:28:48;12.50;99.90
12123;DHT22;6125;59.628;17.852;2023-05-29T08:31:15;12.60;99.90
12123;DHT22;6125;59.628;17.852;2023-05-29T08:33:42;12.70;99.90
12123;DHT22;6125;59.628;17.852;2023-05-29T08:36:10;12.70;99.90
12123;DHT22;6125;59.628;17.852;2023-05-29T08:38:38;12.70;99.90
12123;DHT22;6125;59.628;17.852;2023-05-29T08:41:07;12.80;99.90
12123;DHT22;6125;59.628;17.852;2023-05-29T08:43:34;12.90;99.90
12123;DHT22;6125;59.628;17.852;2023-05-29T08:46:03;12.90;99.90
12123;DHT22;6125;59.628;17.852;2023-05-29T08:48:30;12.90;99.90
12123;DHT22;6125;59.628;17.852;2023-05-29T08:50:58;12.90;99.90
12123;DHT22;6125;59.628;17.852;2023-05-29T08:53:28;13.00;99.90
12123;DHT22;6125;59.628;17.852;2023-05-29T08:55:58;13.00;99.90
12123;DHT22;6125;59.628;17.852;2023-05-29T08:58:26;13.00;99.90
12123;DHT22;6125;59.628;17.852;2023-05-29T09:00:53;13.00;99.90
12123;DHT22;6125;59.628;17.852;2023-05-29T09:03:20;13.10;99.90
12123;DHT22;6125;59.628;17.852;2023-05-29T09:05:48;13.20;99.90
12123;DHT22;6125;59.628;17.852;2023-05-29T09:08:16;13.20;99.90
12123;DHT22;6125;59.628;17.852;2023-05-29T09:10:44;13.30;99.90
12123;DHT22;6125;59.628;17.852;2023-05-29T09:13:13;13.40;99.90
12123;DHT22;6125;59.628;17.852;2023-05-29T09:15:40;13.50;99.90
12123;DHT22;6125;59.628;17.852;2023-05-29T09:18:08;13.50;99.90
12123;DHT22;6125;59.628;17.852;2023-05-29T09:20:36;13.60;99.90
12123;DHT22;6125;59.628;17.852;2023-05-29T09:23:04;13.70;99.90
12123;DHT22;6125;59.628;17.852;2023-05-29T09:25:33;13.70;99.90
12123;DHT22;6125;59.628;17.852;2023-05-29T09:28:02;13.70;99.90
12123;DHT22;6125;59.628;17.852;2023-05-29T09:30:38;13.70;99.90
12123;DHT22;6125;59.628;17.852;2023-05-29T09:33:06;13.70;99.90
12123;DHT22;6125;59.628;17.852;2023-05-29T09:35:38;13.80;99.90
12123;DHT22;6125;59.628;17.852;2023-05-29T09:38:05;13.90;99.90
12123;DHT22;6125;59.628;17.852;2023-05-29T09:40:33;14.10;99.90
12123;DHT22;6125;59.628;17.852;2023-05-29T09:43:05;14.20;99.90
12123;DHT22;6125;59.628;17.852;2023-05-29T09:45:37;14.30;99.90
12123;DHT22;6125;59.628;17.852;2023-05-29T09:48:06;14.30;99.90
12123;DHT22;6125;59.628;17.852;2023-05-29T09:50:34;14.50;99.90
12123;DHT22;6125;59.628;17.852;2023-05-29T09:53:01;14.60;99.90
12123;DHT22;6125;59.628;17.852;2023-05-29T09:55:30;14.70;99.90
12123;DHT22;6125;59.628;17.852;2023-05-29T09:57:59;14.60;99.90
12123;DHT22;6125;59.628;17.852;2023-05-29T10:00:28;14.70;99.90
12123;DHT22;6125;59.628;17.852;2023-05-29T10:02:58;14.70;99.90
12123;DHT22;6125;59.628;17.852;2023-05-29T10:05:25;14.70;99.90
12123;DHT22;6125;59.628;17.852;2023-05-29T10:07:54;14.70;99.90
12123;DHT22;6125;59.628;17.852;2023-05-29T10:10:21;14.70;99.90
12123;DHT22;6125;59.628;17.852;2023-05-29T10:12:53;14.80;99.90
12123;DHT22;6125;59.628;17.852;2023-05-29T10:15:23;14.90;99.90
12123;DHT22;6125;59.628;17.852;2023-05-29T10:18:02;14.90;99.90
12123;DHT22;6125;59.628;17.852;2023-05-29T10:20:30;14.80;99.90
12123;DHT22;6125;59.628;17.852;2023-05-29T10:23:00;14.80;99.90
12123;DHT22;6125;59.628;17.852;2023-05-29T10:25:31;14.90;99.90
12123;DHT22;6125;59.628;17.852;2023-05-29T10:28:00;15.00;99.90
12123;DHT22;6125;59.628;17.852;2023-05-29T10:30:34;15.00;99.90
12123;DHT22;6125;59.628;17.852;2023-05-29T10:33:35;15.10;99.90
12123;DHT22;6125;59.628;17.852;2023-05-29T10:36:09;15.20;99.90
12123;DHT22;6125;59.628;17.852;2023-05-29T10:38:41;15.30;99.90
12123;DHT22;6125;59.628;17.852;2023-05-29T10:41:31;15.40;99.90
12123;DHT22;6125;59.628;17.852;2023-05-29T10:44:39;15.50;99.90
12123;DHT22;6125;59.628;17.852;2023-05-29T10:47:07;15.80;99.90
12123;DHT22;6125;59.628;17.852;2023-05-29T10:49:39;16.00;99.90
12123;DHT22;6125;59.628;17.852;2023-05-29T10:52:10;16.00;99.90
12123;DHT22;6125;59.628;17.852;2023-05-29T10:54:50;16.10;99.90
12123;DHT22;6125;59.628;17.852;2023-05-29T10:57:29;16.30;99.90
12123;DHT22;6125;59.628;17.852;2023-05-29T11:00:02;16.40;99.90
12123;DHT22;6125;59.628;17.852;2023-05-29T11:02:35;16.60;99.90
12123;DHT22;6125;59.628;17.852;2023-05-29T11:05:21;16.60;99.90
12123;DHT22;6125;59.628;17.852;2023-05-29T11:07:56;16.80;99.90
12123;DHT22;6125;59.628;17.852;2023-05-29T11:10:55;16.80;99.90
12123;DHT22;6125;59.628;17.852;2023-05-29T11:13:30;17.00;99.90
12123;DHT22;6125;59.628;17.852;2023-05-29T11:16:20;17.10;99.90
12123;DHT22;6125;59.628;17.852;2023-05-29T11:19:04;17.00;99.90
12123;DHT22;6125;59.628;17.852;2023-05-29T11:21:39;16.90;99.90
12123;DHT22;6125;59.628;17.852;2023-05-29T11:24:21;17.00;99.90
12123;DHT22;6125;59.628;17.852;2023-05-29T11:26:51;17.30;99.90
12123;DHT22;6125;59.628;17.852;2023-05-29T11:29:22;17.50;99.90
12123;DHT22;6125;59.628;17.852;2023-05-29T11:31:54;17.80;99.90
12123;DHT22;6125;59.628;17.852;2023-05-29T11:34:23;17.90;99.90
12123;DHT22;6125;59.628;17.852;2023-05-29T11:36:54;18.00;99.70
12123;DHT22;6125;59.628;17.852;2023-05-29T11:39:23;18.00;99.40
12123;DHT22;6125;59.628;17.852;2023-05-29T11:41:50;18.00;99.20
12123;DHT22;6125;59.628;17.852;2023-05-29T11:44:18;18.00;99.10
12123;DHT22;6125;59.628;17.852;2023-05-29T11:46:45;18.00;99.00
12123;DHT22;6125;59.628;17.852;2023-05-29T11:49:13;18.00;98.20
12123;DHT22;6125;59.628;17.852;2023-05-29T11:51:42;18.00;97.70
12123;DHT22;6125;59.628;17.852;2023-05-29T11:54:13;18.00;98.00
12123;DHT22;6125;59.628;17.852;2023-05-29T11:56:40;18.00;97.30
12123;DHT22;6125;59.628;17.852;2023-05-29T11:59:11;18.00;97.70
12123;DHT22;6125;59.628;17.852;2023-05-29T12:01:38;18.20;97.60
12123;DHT22;6125;59.628;17.852;2023-05-29T12:04:14;18.40;97.60
12123;DHT22;6125;59.628;17.852;2023-05-29T12:06:41;18.60;97.50
12123;DHT22;6125;59.628;17.852;2023-05-29T12:09:08;18.80;97.30
12123;DHT22;6125;59.628;17.852;2023-05-29T12:11:37;19.10;96.70
12123;DHT22;6125;59.628;17.852;2023-05-29T12:14:04;19.30;95.80
12123;DHT22;6125;59.628;17.852;2023-05-29T12:16:33;19.60;95.70
12123;DHT22;6125;59.628;17.852;2023-05-29T12:19:00;19.90;94.70
12123;DHT22;6125;59.628;17.852;2023-05-29T12:21:28;20.10;93.20
12123;DHT22;6125;59.628;17.852;2023-05-29T12:23:55;20.00;92.70
12123;DHT22;6125;59.628;17.852;2023-05-29T12:26:22;19.70;93.10
12123;DHT22;6125;59.628;17.852;2023-05-29T12:28:52;19.70;92.90
12123;DHT22;6125;59.628;17.852;2023-05-29T12:31:26;19.80;91.70
12123;DHT22;6125;59.628;17.852;2023-05-29T12:33:59;19.60;91.20
12123;DHT22;6125;59.628;17.852;2023-05-29T12:36:27;19.40;90.90
12123;DHT22;6125;59.628;17.852;2023-05-29T12:38:54;19.50;91.00
12123;DHT22;6125;59.628;17.852;2023-05-29T12:41:27;19.70;89.70
12123;DHT22;6125;59.628;17.852;2023-05-29T12:43:57;19.60;89.00
12123;DHT22;6125;59.628;17.852;2023-05-29T12:46:24;19.40;89.30
12123;DHT22;6125;59.628;17.852;2023-05-29T12:48:53;19.40;89.30
12123;DHT22;6125;59.628;17.852;2023-05-29T12:51:23;19.30;90.00
12123;DHT22;6125;59.628;17.852;2023-05-29T12:53:51;19.20;87.00
12123;DHT22;6125;59.628;17.852;2023-05-29T12:56:21;18.90;84.60
12123;DHT22;6125;59.628;17.852;2023-05-29T12:58:49;18.50;85.20
12123;DHT22;6125;59.628;17.852;2023-05-29T13:01:18;18.30;86.00
12123;DHT22;6125;59.628;17.852;2023-05-29T13:03:45;18.20;85.90
12123;DHT22;6125;59.628;17.852;2023-05-29T13:06:13;18.20;87.20
12123;DHT22;6125;59.628;17.852;2023-05-29T13:08:40;18.20;85.80
12123;DHT22;6125;59.628;17.852;2023-05-29T13:11:07;18.30;85.80
12123;DHT22;6125;59.628;17.852;2023-05-29T13:13:34;18.10;87.20
12123;DHT22;6125;59.628;17.852;2023-05-29T13:16:01;18.00;87.70
12123;DHT22;6125;59.628;17.852;2023-05-29T13:18:30;17.90;87.90
12123;DHT22;6125;59.628;17.852;2023-05-29T13:20:58;17.90;89.60
12123;DHT22;6125;59.628;17.852;2023-05-29T13:23:25;17.90;87.90
12123;DHT22;6125;59.628;17.852;2023-05-29T13:25:53;17.90;86.40
12123;DHT22;6125;59.628;17.852;2023-05-29T13:28:20;17.80;84.60
12123;DHT22;6125;59.628;17.852;2023-05-29T13:30:47;17.80;79.20
12123;DHT22;6125;59.628;17.852;2023-05-29T13:33:14;17.90;78.80
12123;DHT22;6125;59.628;17.852;2023-05-29T13:35:49;18.10;79.00
12123;DHT22;6125;59.628;17.852;2023-05-29T13:38:16;18.30;81.40
12123;DHT22;6125;59.628;17.852;2023-05-29T13:40:43;18.50;81.70
12123;DHT22;6125;59.628;17.852;2023-05-29T13:43:11;18.60;79.40
12123;DHT22;6125;59.628;17.852;2023-05-29T13:45:38;18.60;78.50
12123;DHT22;6125;59.628;17.852;2023-05-29T13:48:06;18.60;78.70
12123;DHT22;6125;59.628;17.852;2023-05-29T13:50:33;18.60;79.40
12123;DHT22;6125;59.628;17.852;2023-05-29T13:53:01;18.60;82.00
12123;DHT22;6125;59.628;17.852;2023-05-29T13:55:28;18.70;81.90
12123;DHT22;6125;59.628;17.852;2023-05-29T13:57:55;19.00;83.40
12123;DHT22;6125;59.628;17.852;2023-05-29T14:00:23;19.30;83.00
12123;DHT22;6125;59.628;17.852;2023-05-29T14:02:50;19.70;81.70
12123;DHT22;6125;59.628;17.852;2023-05-29T14:05:17;20.00;81.10
12123;DHT22;6125;59.628;17.852;2023-05-29T14:07:45;20.00;80.70
12123;DHT22;6125;59.628;17.852;2023-05-29T14:10:13;20.00;80.80
12123;DHT22;6125;59.628;17.852;2023-05-29T14:12:40;20.30;80.10
12123;DHT22;6125;59.628;17.852;2023-05-29T14:15:09;20.40;80.30
12123;DHT22;6125;59.628;17.852;2023-05-29T14:17:36;20.40;79.80
12123;DHT22;6125;59.628;17.852;2023-05-29T14:20:04;20.40;79.60
12123;DHT22;6125;59.628;17.852;2023-05-29T14:22:34;20.50;77.70
12123;DHT22;6125;59.628;17.852;2023-05-29T14:25:02;20.40;76.50
12123;DHT22;6125;59.628;17.852;2023-05-29T14:27:31;20.30;75.40
12123;DHT22;6125;59.628;17.852;2023-05-29T14:29:58;20.10;75.60
12123;DHT22;6125;59.628;17.852;2023-05-29T14:32:25;20.00;76.30
12123;DHT22;6125;59.628;17.852;2023-05-29T14:34:52;19.90;76.60
12123;DHT22;6125;59.628;17.852;2023-05-29T14:37:19;20.00;77.70
12123;DHT22;6125;59.628;17.852;2023-05-29T14:39:46;20.20;77.00
12123;DHT22;6125;59.628;17.852;2023-05-29T14:42:13;20.40;77.30
12123;DHT22;6125;59.628;17.852;2023-05-29T14:44:43;20.40;76.30
12123;DHT22;6125;59.628;17.852;2023-05-29T14:47:10;20.40;77.30
12123;DHT22;6125;59.628;17.852;2023-05-29T14:49:38;20.50;76.40
12123;DHT22;6125;59.628;17.852;2023-05-29T14:52:05;20.30;76.60
12123;DHT22;6125;59.628;17.852;2023-05-29T14:54:33;20.30;76.90
12123;DHT22;6125;59.628;17.852;2023-05-29T14:57:00;20.50;76.70
12123;DHT22;6125;59.628;17.852;2023-05-29T14:59:27;20.70;74.20
12123;DHT22;6125;59.628;17.852;2023-05-29T15:01:56;20.70;72.60
12123;DHT22;6125;59.628;17.852;2023-05-29T15:04:24;20.80;71.80
12123;DHT22;6125;59.628;17.852;2023-05-29T15:06:51;21.00;72.20
12123;DHT22;6125;59.628;17.852;2023-05-29T15:09:19;21.60;72.60
12123;DHT22;6125;59.628;17.852;2023-05-29T15:11:46;22.30;72.10
12123;DHT22;6125;59.628;17.852;2023-05-29T15:14:13;23.00;71.20
12123;DHT22;6125;59.628;17.852;2023-05-29T15:16:40;23.70;69.00
12123;DHT22;6125;59.628;17.852;2023-05-29T15:19:09;24.00;66.10
12123;DHT22;6125;59.628;17.852;2023-05-29T15:21:36;24.20;66.70
12123;DHT22;6125;59.628;17.852;2023-05-29T15:24:04;24.40;65.20
12123;DHT22;6125;59.628;17.852;2023-05-29T15:26:31;24.40;65.50
12123;DHT22;6125;59.628;17.852;2023-05-29T15:28:58;24.80;66.50
12123;DHT22;6125;59.628;17.852;2023-05-29T15:31:25;25.40;63.70
12123;DHT22;6125;59.628;17.852;2023-05-29T15:33:52;25.60;62.60
12123;DHT22;6125;59.628;17.852;2023-05-29T15:36:20;26.00;62.60
12123;DHT22;6125;59.628;17.852;2023-05-29T15:38:47;26.60;62.20
12123;DHT22;6125;59.628;17.852;2023-05-29T15:41:15;27.40;59.40
12123;DHT22;6125;59.628;17.852;2023-05-29T15:43:42;27.50;58.60